sensor_id;sensor_type;location;lat;lon;timestamp;P1;durP1;ratioP1;P2;durP2;ratioP2
24401;SDS011;12539;48.808;11.292;2022-07-15T00:02:04;2.95;;;2.03;;
24401;SDS011;12539;48.808;11.292;2022-07-15T00:04:31;2.85;;;2.30;;
24401;SDS011;12539;48.808;11.292;2022-07-15T00:06:57;5.18;;;2.70;;
24401;SDS011;12539;48.808;11.292;2022-07-15T00:09:23;3.05;;;2.00;;
24401;SDS011;12539;48.808;11.292;2022-07-15T00:12:09;3.80;;;2.13;;
24401;SDS011;12539;48.808;11.292;2022-07-15T00:14:35;3.38;;;2.30;;
24401;SDS011;12539;48.808;11.292;2022-07-15T00:17:01;2.42;;;1.90;;
24401;SDS011;12539;48.808;11.292;2022-07-15T00:19:27;2.33;;;2.13;;
24401;SDS011;12539;48.808;11.292;2022-07-15T00:21:53;3.10;;;2.17;;
24401;SDS011;12539;48.808;11.292;2022-07-15T00:24:18;3.45;;;2.35;;
24401;SDS011;12539;48.808;11.292;2022-07-15T00:26:44;3.63;;;2.33;;
24401;SDS011;12539;48.808;11.292;2022-07-15T00:29:10;4.18;;;2.40;;
24401;SDS011;12539;48.808;11.292;2022-07-15T00:31:36;4.18;;;2.55;;
24401;SDS011;12539;48.808;11.292;2022-07-15T00:34:02;4.05;;;2.15;;
24401;SDS011;12539;48.808;11.292;2022-07-15T00:36:27;3.67;;;2.10;;
24401;SDS011;12539;48.808;11.292;2022-07-15T00:38:53;3.40;;;2.30;;
24401;SDS011;12539;48.808;11.292;2022-07-15T00:41:19;2.58;;;2.08;;
24401;SDS011;12539;48.808;11.292;2022-07-15T00:43:45;4.28;;;2.42;;
24401;SDS011;12539;48.808;11.292;2022-07-15T00:46:15;4.07;;;2.67;;
24401;SDS011;12539;48.808;11.292;2022-07-15T00:48:42;2.95;;;2.13;;
24401;SDS011;12539;48.808;11.292;2022-07-15T00:51:08;2.67;;;2.10;;
24401;SDS011;12539;48.808;11.292;2022-07-15T00:53:33;2.50;;;2.20;;
24401;SDS011;12539;48.808;11.292;2022-07-15T00:56:02;3.20;;;2.50;;
24401;SDS011;12539;48.808;11.292;2022-07-15T00:58:32;4.53;;;2.53;;
24401;SDS011;12539;48.808;11.292;2022-07-15T01:01:02;4.53;;;2.55;;
24401;SDS011;12539;48.808;11.292;2022-07-15T01:03:28;4.13;;;2.58;;
24401;SDS011;12539;48.808;11.292;2022-07-15T01:05:56;3.00;;;2.10;;
24401;SDS011;12539;48.808;11.292;2022-07-15T01:08:23;7.38;;;2.42;;
24401;SDS011;12539;48.808;11.292;2022-07-15T01:10:49;5.13;;;2.30;;
24401;SDS011;12539;48.808;11.292;2022-07-15T01:13:19;2.97;;;2.10;;
24401;SDS011;12539;48.808;11.292;2022-07-15T01:15:45;4.93;;;2.63;;
24401;SDS011;12539;48.808;11.292;2022-07-15T01:18:11;2.40;;;2.05;;
24401;SDS011;12539;48.808;11.292;2022-07-15T01:20:41;2.75;;;2.10;;
24401;SDS011;12539;48.808;11.292;2022-07-15T01:23:07;3.47;;;2.58;;
24401;SDS011;12539;48.808;11.292;2022-07-15T01:25:33;4.35;;;2.03;;
24401;SDS011;12539;48.808;11.292;2022-07-15T01:27:59;2.80;;;1.98;;
24401;SDS011;12539;48.808;11.292;2022-07-15T01:30:24;3.42;;;1.90;;
24401;SDS011;12539;48.808;11.292;2022-07-15T01:32:50;3.95;;;2.17;;
24401;SDS011;12539;48.808;11.292;2022-07-15T01:35:16;3.05;;;2.17;;
24401;SDS011;12539;48.808;11.292;2022-07-15T01:37:43;2.38;;;2.10;;
24401;SDS011;12539;48.808;11.292;2022-07-15T01:40:09;3.53;;;2.08;;
24401;SDS011;12539;48.808;11.292;2022-07-15T01:42:35;2.60;;;2.03;;
24401;SDS011;12539;48.808;11.292;2022-07-15T01:45:02;3.20;;;2.13;;
24401;SDS011;12539;48.808;11.292;2022-07-15T01:47:31;2.40;;;2.20;;
24401;SDS011;12539;48.808;11.292;2022-07-15T01:49:58;2.55;;;2.00;;
24401;SDS011;12539;48.808;11.292;2022-07-15T01:52:24;9.60;;;2.00;;
24401;SDS011;12539;48.808;11.292;2022-07-15T01:54:50;2.60;;;2.00;;
24401;SDS011;12539;48.808;11.292;2022-07-15T01:57:16;3.28;;;2.03;;
24401;SDS011;12539;48.808;11.292;2022-07-15T01:59:42;2.53;;;1.88;;
24401;SDS011;12539;48.808;11.292;2022-07-15T02:02:08;3.78;;;2.13;;
24401;SDS011;12539;48.808;11.292;2022-07-15T02:04:34;6.22;;;1.95;;
24401;SDS011;12539;48.808;11.292;2022-07-15T02:07:01;3.42;;;1.90;;
24401;SDS011;12539;48.808;11.292;2022-07-15T02:09:28;2.22;;;1.73;;
24401;SDS011;12539;48.808;11.292;2022-07-15T02:11:54;4.35;;;2.13;;
24401;SDS011;12539;48.808;11.292;2022-07-15T02:14:20;2.85;;;2.08;;
24401;SDS011;12539;48.808;11.292;2022-07-15T02:16:46;2.92;;;2.25;;
24401;SDS011;12539;48.808;11.292;2022-07-15T02:19:12;1.98;;;1.77;;
24401;SDS011;12539;48.808;11.292;2022-07-15T02:21:38;3.85;;;2.22;;
24401;SDS011;12539;48.808;11.292;2022-07-15T02:24:04;1.83;;;1.63;;
24401;SDS011;12539;48.808;11.292;2022-07-15T02:26:30;3.55;;;2.38;;
24401;SDS011;12539;48.808;11.292;2022-07-15T02:28:56;5.68;;;1.80;;
24401;SDS011;12539;48.808;11.292;2022-07-15T02:31:22;6.97;;;1.70;;
24401;SDS011;12539;48.808;11.292;2022-07-15T02:33:48;2.13;;;1.65;;
24401;SDS011;12539;48.808;11.292;2022-07-15T02:36:15;2.30;;;1.70;;
24401;SDS011;12539;48.808;11.292;2022-07-15T02:38:41;2.55;;;1.67;;
24401;SDS011;12539;48.808;11.292;2022-07-15T02:41:07;6.22;;;2.10;;
24401;SDS011;12539;48.808;11.292;2022-07-15T02:43:33;3.50;;;1.70;;
24401;SDS011;12539;48.808;11.292;2022-07-15T02:46:01;2.45;;;2.08;;
24401;SDS011;12539;48.808;11.292;2022-07-15T02:48:27;4.25;;;1.38;;
24401;SDS011;12539;48.808;11.292;2022-07-15T02:50:52;3.70;;;1.92;;
24401;SDS011;12539;48.808;11.292;2022-07-15T02:53:18;4.72;;;1.80;;
24401;SDS011;12539;48.808;11.292;2022-07-15T02:55:46;3.92;;;1.73;;
24401;SDS011;12539;48.808;11.292;2022-07-15T02:58:13;4.07;;;1.67;;
24401;SDS011;12539;48.808;11.292;2022-07-15T03:00:38;2.90;;;1.58;;
24401;SDS011;12539;48.808;11.292;2022-07-15T03:03:04;2.08;;;1.70;;
24401;SDS011;12539;48.808;11.292;2022-07-15T03:05:30;2.60;;;1.88;;
24401;SDS011;12539;48.808;11.292;2022-07-15T03:07:56;3.63;;;2.00;;
24401;SDS011;12539;48.808;11.292;2022-07-15T03:10:22;6.32;;;1.63;;
24401;SDS011;12539;48.808;11.292;2022-07-15T03:12:47;5.22;;;2.15;;
24401;SDS011;12539;48.808;11.292;2022-07-15T03:15:13;4.60;;;2.10;;
24401;SDS011;12539;48.808;11.292;2022-07-15T03:17:39;4.15;;;1.75;;
24401;SDS011;12539;48.808;11.292;2022-07-15T03:20:05;3.17;;;1.60;;
24401;SDS011;12539;48.808;11.292;2022-07-15T03:22:32;2.72;;;1.88;;
24401;SDS011;12539;48.808;11.292;2022-07-15T03:24:58;3.25;;;1.90;;
24401;SDS011;12539;48.808;11.292;2022-07-15T03:27:23;4.15;;;1.50;;
24401;SDS011;12539;48.808;11.292;2022-07-15T03:29:49;2.15;;;1.80;;
24401;SDS011;12539;48.808;11.292;2022-07-15T03:32:15;5.20;;;1.80;;
24401;SDS011;12539;48.808;11.292;2022-07-15T03:34:42;6.13;;;1.98;;
24401;SDS011;12539;48.808;11.292;2022-07-15T03:37:08;4.53;;;2.03;;
24401;SDS011;12539;48.808;11.292;2022-07-15T03:39:34;3.65;;;1.95;;
24401;SDS011;12539;48.808;11.292;2022-07-15T03:42:00;3.95;;;1.70;;
24401;SDS011;12539;48.808;11.292;2022-07-15T03:44:25;3.58;;;1.98;;
24401;SDS011;12539;48.808;11.292;2022-07-15T03:46:51;3.17;;;1.67;;
24401;SDS011;12539;48.808;11.292;2022-07-15T03:49:17;3.72;;;1.77;;
24401;SDS011;12539;48.808;11.292;2022-07-15T03:51:43;3.67;;;2.00;;
24401;SDS011;12539;48.808;11.292;2022-07-15T03:54:09;1.70;;;1.60;;
24401;SDS011;12539;48.808;11.292;2022-07-15T03:56:35;2.65;;;2.30;;
24401;SDS011;12539;48.808;11.292;2022-07-15T03:59:01;4.18;;;2.15;;
24401;SDS011;12539;48.808;11.292;2022-07-15T04:01:28;4.75;;;1.95;;
24401;SDS011;12539;48.808;11.292;2022-07-15T04:03:55;4.30;;;1.85;;
24401;SDS011;12539;48.808;11.292;2022-07-15T04:06:21;3.05;;;1.90;;
24401;SDS011;12539;48.808;11.292;2022-07-15T04:08:47;3.35;;;2.20;;
24401;SDS011;12539;48.808;11.292;2022-07-15T04:11:14;6.05;;;1.98;;
24401;SDS011;12539;48.808;11.292;2022-07-15T04:13:40;3.33;;;1.77;;
24401;SDS011;12539;48.808;11.292;2022-07-15T04:16:06;9.55;;;2.28;;
24401;SDS011;12539;48.808;11.292;2022-07-15T04:18:33;3.45;;;2.10;;
24401;SDS011;12539;48.808;11.292;2022-07-15T04:21:00;3.17;;;2.08;;
24401;SDS011;12539;48.808;11.292;2022-07-15T04:23:26;3.58;;;2.65;;
24401;SDS011;12539;48.808;11.292;2022-07-15T04:25:52;3.97;;;2.35;;
24401;SDS011;12539;48.808;11.292;2022-07-15T04:28:22;2.75;;;2.00;;
24401;SDS011;12539;48.808;11.292;2022-07-15T04:30:48;7.78;;;2.30;;
24401;SDS011;12539;48.808;11.292;2022-07-15T04:33:14;3.47;;;2.17;;
24401;SDS011;12539;48.808;11.292;2022-07-15T04:35:40;2.80;;;2.08;;
24401;SDS011;12539;48.808;11.292;2022-07-15T04:38:06;4.20;;;1.80;;
24401;SDS011;12539;48.808;11.292;2022-07-15T04:40:31;4.35;;;2.50;;
24401;SDS011;12539;48.808;11.292;2022-07-15T04:42:58;2.65;;;1.92;;
24401;SDS011;12539;48.808;11.292;2022-07-15T04:45:24;5.03;;;2.63;;
24401;SDS011;12539;48.808;11.292;2022-07-15T04:47:53;4.20;;;2.47;;
24401;SDS011;12539;48.808;11.292;2022-07-15T04:50:19;1.95;;;1.70;;
24401;SDS011;12539;48.808;11.292;2022-07-15T04:53:04;7.32;;;2.35;;
24401;SDS011;12539;48.808;11.292;2022-07-15T04:55:30;4.13;;;2.33;;
24401;SDS011;12539;48.808;11.292;2022-07-15T04:57:55;6.53;;;2.83;;
24401;SDS011;12539;48.808;11.292;2022-07-15T05:00:21;5.38;;;2.80;;
24401;SDS011;12539;48.808;11.292;2022-07-15T05:02:47;3.42;;;2.30;;
24401;SDS011;12539;48.808;11.292;2022-07-15T05:05:13;8.30;;;2.47;;
24401;SDS011;12539;48.808;11.292;2022-07-15T05:07:39;4.18;;;2.17;;
24401;SDS011;12539;48.808;11.292;2022-07-15T05:10:05;5.05;;;2.30;;
24401;SDS011;12539;48.808;11.292;2022-07-15T05:12:32;4.65;;;1.90;;
24401;SDS011;12539;48.808;11.292;2022-07-15T05:14:58;6.45;;;1.55;;
24401;SDS011;12539;48.808;11.292;2022-07-15T05:17:24;3.75;;;1.80;;
24401;SDS011;12539;48.808;11.292;2022-07-15T05:19:50;1.70;;;1.30;;
24401;SDS011;12539;48.808;11.292;2022-07-15T05:22:17;2.92;;;1.42;;
24401;SDS011;12539;48.808;11.292;2022-07-15T05:24:43;3.08;;;1.67;;
24401;SDS011;12539;48.808;11.292;2022-07-15T05:27:09;2.65;;;1.20;;
24401;SDS011;12539;48.808;11.292;2022-07-15T05:29:35;2.13;;;1.23;;
24401;SDS011;12539;48.808;11.292;2022-07-15T05:32:01;2.00;;;1.00;;
24401;SDS011;12539;48.808;11.292;2022-07-15T05:34:26;3.78;;;1.00;;
24401;SDS011;12539;48.808;11.292;2022-07-15T05:36:52;1.75;;;0.95;;
24401;SDS011;12539;48.808;11.292;2022-07-15T05:39:18;4.03;;;1.15;;
24401;SDS011;12539;48.808;11.292;2022-07-15T05:41:43;3.03;;;1.20;;
24401;SDS011;12539;48.808;11.292;2022-07-15T05:44:10;3.25;;;1.10;;
24401;SDS011;12539;48.808;11.292;2022-07-15T05:46:36;3.92;;;1.08;;
24401;SDS011;12539;48.808;11.292;2022-07-15T05:49:01;1.45;;;0.90;;
24401;SDS011;12539;48.808;11.292;2022-07-15T05:51:27;3.00;;;1.10;;
24401;SDS011;12539;48.808;11.292;2022-07-15T05:53:53;3.67;;;1.00;;
24401;SDS011;12539;48.808;11.292;2022-07-15T05:56:19;3.20;;;1.25;;
24401;SDS011;12539;48.808;11.292;2022-07-15T05:58:45;1.92;;;0.90;;
24401;SDS011;12539;48.808;11.292;2022-07-15T06:01:11;2.05;;;0.80;;
24401;SDS011;12539;48.808;11.292;2022-07-15T06:03:36;3.97;;;1.48;;
24401;SDS011;12539;48.808;11.292;2022-07-15T06:06:02;1.63;;;0.60;;
24401;SDS011;12539;48.808;11.292;2022-07-15T06:08:30;1.80;;;0.90;;
24401;SDS011;12539;48.808;11.292;2022-07-15T06:10:56;1.85;;;1.05;;
24401;SDS011;12539;48.808;11.292;2022-07-15T06:13:22;1.17;;;0.80;;
24401;SDS011;12539;48.808;11.292;2022-07-15T06:15:48;2.53;;;0.88;;
24401;SDS011;12539;48.808;11.292;2022-07-15T06:18:14;2.70;;;1.00;;
24401;SDS011;12539;48.808;11.292;2022-07-15T06:20:39;2.00;;;0.90;;
24401;SDS011;12539;48.808;11.292;2022-07-15T06:23:05;2.17;;;1.00;;
24401;SDS011;12539;48.808;11.292;2022-07-15T06:25:31;1.10;;;0.70;;
24401;SDS011;12539;48.808;11.292;2022-07-15T06:27:56;2.53;;;0.88;;
24401;SDS011;12539;48.808;11.292;2022-07-15T06:30:22;5.13;;;1.15;;
24401;SDS011;12539;48.808;11.292;2022-07-15T06:32:48;1.60;;;0.70;;
24401;SDS011;12539;48.808;11.292;2022-07-15T06:35:14;4.22;;;0.70;;
24401;SDS011;12539;48.808;11.292;2022-07-15T06:37:39;3.03;;;0.70;;
24401;SDS011;12539;48.808;11.292;2022-07-15T06:40:06;5.57;;;0.95;;
24401;SDS011;12539;48.808;11.292;2022-07-15T06:42:32;3.13;;;0.80;;
24401;SDS011;12539;48.808;11.292;2022-07-15T06:44:58;3.75;;;0.75;;
24401;SDS011;12539;48.808;11.292;2022-07-15T06:47:23;3.05;;;0.77;;
24401;SDS011;12539;48.808;11.292;2022-07-15T06:49:49;2.47;;;0.60;;
24401;SDS011;12539;48.808;11.292;2022-07-15T06:52:15;2.78;;;0.70;;
24401;SDS011;12539;48.808;11.292;2022-07-15T06:54:41;2.50;;;0.85;;
24401;SDS011;12539;48.808;11.292;2022-07-15T06:57:07;2.53;;;0.80;;
24401;SDS011;12539;48.808;11.292;2022-07-15T06:59:33;2.38;;;0.50;;
24401;SDS011;12539;48.808;11.292;2022-07-15T07:01:59;2.75;;;0.60;;
24401;SDS011;12539;48.808;11.292;2022-07-15T07:04:25;1.40;;;0.55;;
24401;SDS011;12539;48.808;11.292;2022-07-15T07:06:51;1.23;;;0.35;;
24401;SDS011;12539;48.808;11.292;2022-07-15T07:09:17;0.80;;;0.35;;
24401;SDS011;12539;48.808;11.292;2022-07-15T07:11:43;3.58;;;0.73;;
24401;SDS011;12539;48.808;11.292;2022-07-15T07:14:08;3.97;;;0.68;;
24401;SDS011;12539;48.808;11.292;2022-07-15T07:16:34;2.00;;;0.60;;
24401;SDS011;12539;48.808;11.292;2022-07-15T07:19:00;3.65;;;0.82;;
24401;SDS011;12539;48.808;11.292;2022-07-15T07:21:26;1.45;;;0.70;;
24401;SDS011;12539;48.808;11.292;2022-07-15T07:23:52;1.65;;;0.77;;
24401;SDS011;12539;48.808;11.292;2022-07-15T07:26:18;1.48;;;0.80;;
24401;SDS011;12539;48.808;11.292;2022-07-15T07:28:44;1.90;;;0.60;;
24401;SDS011;12539;48.808;11.292;2022-07-15T07:31:11;0.90;;;0.60;;
24401;SDS011;12539;48.808;11.292;2022-07-15T07:33:38;2.70;;;0.65;;
24401;SDS011;12539;48.808;11.292;2022-07-15T07:36:04;2.10;;;1.10;;
24401;SDS011;12539;48.808;11.292;2022-07-15T07:38:34;2.10;;;0.60;;
24401;SDS011;12539;48.808;11.292;2022-07-15T07:41:01;3.47;;;0.98;;
24401;SDS011;12539;48.808;11.292;2022-07-15T07:43:27;2.70;;;0.80;;
24401;SDS011;12539;48.808;11.292;2022-07-15T07:45:53;1.67;;;0.65;;
24401;SDS011;12539;48.808;11.292;2022-07-15T07:48:19;4.25;;;1.05;;
24401;SDS011;12539;48.808;11.292;2022-07-15T07:50:45;1.70;;;0.80;;
24401;SDS011;12539;48.808;11.292;2022-07-15T07:53:11;2.47;;;0.90;;
24401;SDS011;12539;48.808;11.292;2022-07-15T07:55:37;1.27;;;0.60;;
24401;SDS011;12539;48.808;11.292;2022-07-15T07:58:04;1.90;;;0.70;;
24401;SDS011;12539;48.808;11.292;2022-07-15T08:00:30;2.67;;;0.80;;
24401;SDS011;12539;48.808;11.292;2022-07-15T08:02:59;2.35;;;1.02;;
24401;SDS011;12539;48.808;11.292;2022-07-15T08:05:26;1.63;;;0.70;;
24401;SDS011;12539;48.808;11.292;2022-07-15T08:08:13;1.77;;;0.75;;
24401;SDS011;12539;48.808;11.292;2022-07-15T08:10:39;1.48;;;0.70;;
24401;SDS011;12539;48.808;11.292;2022-07-15T08:13:05;1.60;;;1.10;;
24401;SDS011;12539;48.808;11.292;2022-07-15T08:15:31;1.92;;;1.00;;
24401;SDS011;12539;48.808;11.292;2022-07-15T08:17:56;1.33;;;1.10;;
24401;SDS011;12539;48.808;11.292;2022-07-15T08:20:22;3.53;;;0.93;;
24401;SDS011;12539;48.808;11.292;2022-07-15T08:22:48;2.85;;;1.13;;
24401;SDS011;12539;48.808;11.292;2022-07-15T08:25:14;3.10;;;0.95;;
24401;SDS011;12539;48.808;11.292;2022-07-15T08:27:39;1.25;;;0.95;;
24401;SDS011;12539;48.808;11.292;2022-07-15T08:30:05;2.42;;;1.13;;
24401;SDS011;12539;48.808;11.292;2022-07-15T08:32:31;3.28;;;1.15;;
24401;SDS011;12539;48.808;11.292;2022-07-15T08:34:57;4.57;;;0.75;;
24401;SDS011;12539;48.808;11.292;2022-07-15T08:37:26;1.67;;;0.93;;
24401;SDS011;12539;48.808;11.292;2022-07-15T08:39:51;3.90;;;1.40;;
24401;SDS011;12539;48.808;11.292;2022-07-15T08:42:17;4.07;;;1.55;;
24401;SDS011;12539;48.808;11.292;2022-07-15T08:44:43;2.55;;;1.05;;
24401;SDS011;12539;48.808;11.292;2022-07-15T08:47:09;5.18;;;1.50;;
24401;SDS011;12539;48.808;11.292;2022-07-15T08:49:35;4.40;;;1.20;;
24401;SDS011;12539;48.808;11.292;2022-07-15T08:52:04;2.30;;;1.10;;
24401;SDS011;12539;48.808;11.292;2022-07-15T08:54:31;4.65;;;1.30;;
24401;SDS011;12539;48.808;11.292;2022-07-15T08:56:57;3.50;;;0.80;;
24401;SDS011;12539;48.808;11.292;2022-07-15T08:59:24;4.88;;;1.10;;
24401;SDS011;12539;48.808;11.292;2022-07-15T09:01:50;1.35;;;0.80;;
24401;SDS011;12539;48.808;11.292;2022-07-15T09:04:18;2.88;;;1.20;;
24401;SDS011;12539;48.808;11.292;2022-07-15T09:06:47;2.78;;;1.38;;
24401;SDS011;12539;48.808;11.292;2022-07-15T09:11:43;2.28;;;1.00;;
24401;SDS011;12539;48.808;11.292;2022-07-15T09:14:11;2.90;;;1.10;;
24401;SDS011;12539;48.808;11.292;2022-07-15T09:16:39;2.42;;;1.88;;
24401;SDS011;12539;48.808;11.292;2022-07-15T09:19:04;3.28;;;1.25;;
24401;SDS011;12539;48.808;11.292;2022-07-15T09:21:30;1.75;;;1.00;;
24401;SDS011;12539;48.808;11.292;2022-07-15T09:23:56;1.38;;;0.80;;
24401;SDS011;12539;48.808;11.292;2022-07-15T09:26:42;2.13;;;1.33;;
24401;SDS011;12539;48.808;11.292;2022-07-15T09:29:08;3.40;;;0.88;;
24401;SDS011;12539;48.808;11.292;2022-07-15T09:31:59;1.85;;;1.00;;
24401;SDS011;12539;48.808;11.292;2022-07-15T09:35:04;2.33;;;0.82;;
24401;SDS011;12539;48.808;11.292;2022-07-15T09:37:59;3.03;;;1.02;;
24401;SDS011;12539;48.808;11.292;2022-07-15T09:40:25;2.08;;;1.00;;
24401;SDS011;12539;48.808;11.292;2022-07-15T09:43:01;2.85;;;1.17;;
24401;SDS011;12539;48.808;11.292;2022-07-15T09:45:30;3.42;;;1.08;;
24401;SDS011;12539;48.808;11.292;2022-07-15T09:48:07;3.45;;;1.20;;
24401;SDS011;12539;48.808;11.292;2022-07-15T09:50:40;2.97;;;1.20;;
24401;SDS011;12539;48.808;11.292;2022-07-15T09:53:13;4.25;;;1.45;;
24401;SDS011;12539;48.808;11.292;2022-07-15T09:55:42;1.80;;;1.08;;
24401;SDS011;12539;48.808;11.292;2022-07-15T09:58:08;2.75;;;1.20;;
24401;SDS011;12539;48.808;11.292;2022-07-15T10:00:34;1.90;;;1.10;;
24401;SDS011;12539;48.808;11.292;2022-07-15T10:03:02;2.95;;;1.30;;
24401;SDS011;12539;48.808;11.292;2022-07-15T10:05:28;3.25;;;1.30;;
24401;SDS011;12539;48.808;11.292;2022-07-15T10:07:56;1.60;;;1.20;;
24401;SDS011;12539;48.808;11.292;2022-07-15T10:10:26;3.17;;;1.13;;
24401;SDS011;12539;48.808;11.292;2022-07-15T10:19:08;1.75;;;1.10;;
24401;SDS011;12539;48.808;11.292;2022-07-15T10:30:24;2.55;;;1.15;;
24401;SDS011;12539;48.808;11.292;2022-07-15T10:35:53;2.58;;;1.10;;
24401;SDS011;12539;48.808;11.292;2022-07-15T10:38:33;2.75;;;0.90;;
24401;SDS011;12539;48.808;11.292;2022-07-15T10:41:07;2.85;;;1.08;;
24401;SDS011;12539;48.808;11.292;2022-07-15T10:46:05;2.90;;;1.10;;
24401;SDS011;12539;48.808;11.292;2022-07-15T10:48:48;2.78;;;1.08;;
24401;SDS011;12539;48.808;11.292;2022-07-15T10:54:00;2.42;;;1.20;;
24401;SDS011;12539;48.808;11.292;2022-07-15T10:56:49;6.85;;;1.23;;
24401;SDS011;12539;48.808;11.292;2022-07-15T10:59:17;2.28;;;0.80;;
24401;SDS011;12539;48.808;11.292;2022-07-15T11:02:10;2.42;;;0.98;;
24401;SDS011;12539;48.808;11.292;2022-07-15T11:04:37;1.80;;;1.10;;
24401;SDS011;12539;48.808;11.292;2022-07-15T11:14:58;3.13;;;1.13;;
24401;SDS011;12539;48.808;11.292;2022-07-15T11:20:07;0.93;;;0.70;;
24401;SDS011;12539;48.808;11.292;2022-07-15T11:22:36;1.00;;;0.55;;
24401;SDS011;12539;48.808;11.292;2022-07-15T11:25:05;2.35;;;1.00;;
24401;SDS011;12539;48.808;11.292;2022-07-15T11:27:31;0.95;;;0.68;;
24401;SDS011;12539;48.808;11.292;2022-07-15T11:29:58;4.47;;;1.02;;
24401;SDS011;12539;48.808;11.292;2022-07-15T11:32:28;1.30;;;0.90;;
24401;SDS011;12539;48.808;11.292;2022-07-15T11:34:57;1.08;;;0.70;;
24401;SDS011;12539;48.808;11.292;2022-07-15T11:37:28;3.75;;;1.48;;
24401;SDS011;12539;48.808;11.292;2022-07-15T11:40:10;2.58;;;1.20;;
24401;SDS011;12539;48.808;11.292;2022-07-15T11:42:58;3.53;;;1.83;;
24401;SDS011;12539;48.808;11.292;2022-07-15T11:45:42;2.55;;;1.20;;
24401;SDS011;12539;48.808;11.292;2022-07-15T11:48:08;1.75;;;1.00;;
24401;SDS011;12539;48.808;11.292;2022-07-15T11:50:35;1.30;;;1.02;;
24401;SDS011;12539;48.808;11.292;2022-07-15T11:53:24;2.45;;;1.15;;
24401;SDS011;12539;48.808;11.292;2022-07-15T11:55:50;4.30;;;1.23;;
24401;SDS011;12539;48.808;11.292;2022-07-15T11:58:31;4.53;;;1.50;;
24401;SDS011;12539;48.808;11.292;2022-07-15T12:00:59;4.55;;;1.52;;
24401;SDS011;12539;48.808;11.292;2022-07-15T12:03:36;3.42;;;1.38;;
24401;SDS011;12539;48.808;11.292;2022-07-15T12:06:10;4.05;;;1.35;;
24401;SDS011;12539;48.808;11.292;2022-07-15T12:08:49;4.72;;;1.60;;
24401;SDS011;12539;48.808;11.292;2022-07-15T12:11:23;1.70;;;0.82;;
24401;SDS011;12539;48.808;11.292;2022-07-15T12:16:24;0.70;;;0.60;;
24401;SDS011;12539;48.808;11.292;2022-07-15T12:18:57;1.55;;;0.80;;
24401;SDS011;12539;48.808;11.292;2022-07-15T12:21:27;1.85;;;1.08;;
24401;SDS011;12539;48.808;11.292;2022-07-15T12:23:57;2.08;;;1.10;;
24401;SDS011;12539;48.808;11.292;2022-07-15T12:26:28;0.80;;;0.60;;
24401;SDS011;12539;48.808;11.292;2022-07-15T12:28:55;1.52;;;1.00;;
24401;SDS011;12539;48.808;11.292;2022-07-15T12:31:30;2.03;;;1.08;;
24401;SDS011;12539;48.808;11.292;2022-07-15T12:33:57;3.45;;;1.40;;
24401;SDS011;12539;48.808;11.292;2022-07-15T12:36:25;3.00;;;1.50;;
24401;SDS011;12539;48.808;11.292;2022-07-15T12:41:31;1.45;;;0.88;;
24401;SDS011;12539;48.808;11.292;2022-07-15T12:43:58;2.88;;;0.73;;
24401;SDS011;12539;48.808;11.292;2022-07-15T12:55:13;0.50;;;0.50;;
24401;SDS011;12539;48.808;11.292;2022-07-15T12:57:45;2.05;;;1.00;;
24401;SDS011;12539;48.808;11.292;2022-07-15T13:05:39;1.60;;;0.88;;
24401;SDS011;12539;48.808;11.292;2022-07-15T13:08:06;0.85;;;0.57;;
24401;SDS011;12539;48.808;11.292;2022-07-15T13:10:33;1.17;;;0.70;;
24401;SDS011;12539;48.808;11.292;2022-07-15T13:12:59;1.98;;;1.02;;
24401;SDS011;12539;48.808;11.292;2022-07-15T13:15:26;1.42;;;0.60;;
24401;SDS011;12539;48.808;11.292;2022-07-15T13:17:52;2.13;;;0.90;;
24401;SDS011;12539;48.808;11.292;2022-07-15T13:20:18;2.05;;;1.00;;
24401;SDS011;12539;48.808;11.292;2022-07-15T13:22:44;5.25;;;1.85;;
24401;SDS011;12539;48.808;11.292;2022-07-15T13:25:12;2.20;;;0.95;;
24401;SDS011;12539;48.808;11.292;2022-07-15T13:27:38;1.65;;;1.10;;
24401;SDS011;12539;48.808;11.292;2022-07-15T13:30:05;1.40;;;1.02;;
24401;SDS011;12539;48.808;11.292;2022-07-15T13:32:31;2.22;;;0.63;;
24401;SDS011;12539;48.808;11.292;2022-07-15T13:34:57;2.88;;;1.08;;
24401;SDS011;12539;48.808;11.292;2022-07-15T13:37:23;2.13;;;1.17;;
24401;SDS011;12539;48.808;11.292;2022-07-15T13:39:48;4.03;;;1.10;;
24401;SDS011;12539;48.808;11.292;2022-07-15T13:42:14;5.57;;;1.30;;
24401;SDS011;12539;48.808;11.292;2022-07-15T13:44:40;4.00;;;1.10;;
24401;SDS011;12539;48.808;11.292;2022-07-15T13:47:06;2.38;;;0.90;;
24401;SDS011;12539;48.808;11.292;2022-07-15T13:49:31;1.55;;;0.80;;
24401;SDS011;12539;48.808;11.292;2022-07-15T13:52:15;1.15;;;0.90;;
24401;SDS011;12539;48.808;11.292;2022-07-15T13:54:41;2.05;;;1.00;;
24401;SDS011;12539;48.808;11.292;2022-07-15T13:57:07;2.70;;;1.38;;
24401;SDS011;12539;48.808;11.292;2022-07-15T13:59:33;0.90;;;0.60;;
24401;SDS011;12539;48.808;11.292;2022-07-15T14:01:58;2.47;;;1.35;;
24401;SDS011;12539;48.808;11.292;2022-07-15T14:04:24;2.90;;;1.10;;
24401;SDS011;12539;48.808;11.292;2022-07-15T14:06:50;2.22;;;0.95;;
24401;SDS011;12539;48.808;11.292;2022-07-15T14:09:15;0.88;;;0.70;;
24401;SDS011;12539;48.808;11.292;2022-07-15T14:11:41;3.47;;;0.75;;
24401;SDS011;12539;48.808;11.292;2022-07-15T14:14:07;2.10;;;1.05;;
24401;SDS011;12539;48.808;11.292;2022-07-15T14:16:32;2.47;;;1.20;;
24401;SDS011;12539;48.808;11.292;2022-07-15T14:18:58;1.75;;;0.52;;
24401;SDS011;12539;48.808;11.292;2022-07-15T14:21:24;1.45;;;0.80;;
24401;SDS011;12539;48.808;11.292;2022-07-15T14:23:50;1.83;;;1.08;;
24401;SDS011;12539;48.808;11.292;2022-07-15T14:26:15;0.93;;;0.57;;
24401;SDS011;12539;48.808;11.292;2022-07-15T14:28:42;1.55;;;0.90;;
24401;SDS011;12539;48.808;11.292;2022-07-15T14:31:09;1.38;;;0.70;;
24401;SDS011;12539;48.808;11.292;2022-07-15T14:33:38;2.20;;;1.10;;
24401;SDS011;12539;48.808;11.292;2022-07-15T14:36:08;1.70;;;1.20;;
24401;SDS011;12539;48.808;11.292;2022-07-15T14:38:34;3.85;;;1.20;;
24401;SDS011;12539;48.808;11.292;2022-07-15T14:41:01;1.80;;;1.20;;
24401;SDS011;12539;48.808;11.292;2022-07-15T14:43:27;3.28;;;1.05;;
24401;SDS011;12539;48.808;11.292;2022-07-15T14:45:53;1.77;;;1.20;;
24401;SDS011;12539;48.808;11.292;2022-07-15T14:48:18;1.75;;;1.25;;
24401;SDS011;12539;48.808;11.292;2022-07-15T14:50:44;1.27;;;0.93;;
24401;SDS011;12539;48.808;11.292;2022-07-15T14:53:13;6.15;;;1.30;;
24401;SDS011;12539;48.808;11.292;2022-07-15T14:55:38;2.17;;;0.90;;
24401;SDS011;12539;48.808;11.292;2022-07-15T14:58:04;2.28;;;1.00;;
24401;SDS011;12539;48.808;11.292;2022-07-15T15:00:30;2.33;;;1.00;;
24401;SDS011;12539;48.808;11.292;2022-07-15T15:02:56;1.55;;;1.00;;
24401;SDS011;12539;48.808;11.292;2022-07-15T15:05:22;1.33;;;0.98;;
24401;SDS011;12539;48.808;11.292;2022-07-15T15:07:48;2.05;;;0.82;;
24401;SDS011;12539;48.808;11.292;2022-07-15T15:10:14;5.97;;;1.35;;
24401;SDS011;12539;48.808;11.292;2022-07-15T15:12:40;2.72;;;1.10;;
24401;SDS011;12539;48.808;11.292;2022-07-15T15:15:06;1.25;;;0.88;;
24401;SDS011;12539;48.808;11.292;2022-07-15T15:17:32;2.88;;;1.30;;
24401;SDS011;12539;48.808;11.292;2022-07-15T15:19:58;1.80;;;0.85;;
24401;SDS011;12539;48.808;11.292;2022-07-15T15:22:29;1.48;;;1.20;;
24401;SDS011;12539;48.808;11.292;2022-07-15T15:24:55;2.42;;;1.25;;
24401;SDS011;12539;48.808;11.292;2022-07-15T15:27:21;3.95;;;1.08;;
24401;SDS011;12539;48.808;11.292;2022-07-15T15:29:46;8.25;;;1.67;;
24401;SDS011;12539;48.808;11.292;2022-07-15T15:32:12;9.43;;;1.50;;